sensor_id;sensor_type;location;lat;lon;timestamp;P1;durP1;ratioP1;P2;durP2;ratioP2
7843;SDS011;3967;48.702;9.326;2022-09-03T00:01:32;1.93;;;0.93;;
7843;SDS011;3967;48.702;9.326;2022-09-03T00:04:07;3.03;;;0.90;;
7843;SDS011;3967;48.702;9.326;2022-09-03T00:06:54;1.33;;;0.80;;
7843;SDS011;3967;48.702;9.326;2022-09-03T00:14:38;0.80;;;0.80;;
7843;SDS011;3967;48.702;9.326;2022-09-03T00:17:13;3.17;;;0.80;;
7843;SDS011;3967;48.702;9.326;2022-09-03T00:19:51;0.70;;;0.70;;
7843;SDS011;3967;48.702;9.326;2022-09-03T00:22:34;1.47;;;0.90;;
7843;SDS011;3967;48.702;9.326;2022-09-03T00:25:06;0.60;;;0.60;;
7843;SDS011;3967;48.702;9.326;2022-09-03T00:27:39;0.83;;;0.83;;
7843;SDS011;3967;48.702;9.326;2022-09-03T00:30:10;1.53;;;0.77;;
7843;SDS011;3967;48.702;9.326;2022-09-03T00:32:49;0.80;;;0.80;;
7843;SDS011;3967;48.702;9.326;2022-09-03T00:35:33;0.70;;;0.70;;
7843;SDS011;3967;48.702;9.326;2022-09-03T00:38:08;0.97;;;0.70;;
7843;SDS011;3967;48.702;9.326;2022-09-03T00:40:40;1.43;;;0.70;;
7843;SDS011;3967;48.702;9.326;2022-09-03T00:48:47;0.80;;;0.60;;
7843;SDS011;3967;48.702;9.326;2022-09-03T00:51:33;0.73;;;0.70;;
7843;SDS011;3967;48.702;9.326;2022-09-03T01:14:02;0.80;;;0.70;;
7843;SDS011;3967;48.702;9.326;2022-09-03T01:30:37;1.20;;;0.80;;
7843;SDS011;3967;48.702;9.326;2022-09-03T01:33:26;0.90;;;0.70;;
7843;SDS011;3967;48.702;9.326;2022-09-03T01:35:57;1.57;;;0.70;;
7843;SDS011;3967;48.702;9.326;2022-09-03T01:46:59;0.60;;;0.60;;
7843;SDS011;3967;48.702;9.326;2022-09-03T01:49:42;2.73;;;0.80;;
7843;SDS011;3967;48.702;9.326;2022-09-03T01:52:11;0.80;;;0.80;;
7843;SDS011;3967;48.702;9.326;2022-09-03T02:00:22;1.67;;;0.87;;
7843;SDS011;3967;48.702;9.326;2022-09-03T02:02:51;1.73;;;0.80;;
7843;SDS011;3967;48.702;9.326;2022-09-03T02:07:54;1.73;;;0.90;;
7843;SDS011;3967;48.702;9.326;2022-09-03T02:10:31;0.97;;;0.70;;
7843;SDS011;3967;48.702;9.326;2022-09-03T02:13:04;1.63;;;0.93;;
7843;SDS011;3967;48.702;9.326;2022-09-03T02:15:39;1.00;;;0.90;;
7843;SDS011;3967;48.702;9.326;2022-09-03T02:18:13;0.73;;;0.73;;
7843;SDS011;3967;48.702;9.326;2022-09-03T02:20:46;1.10;;;0.70;;
7843;SDS011;3967;48.702;9.326;2022-09-03T02:23:14;2.43;;;0.90;;
7843;SDS011;3967;48.702;9.326;2022-09-03T02:25:43;1.33;;;0.80;;
7843;SDS011;3967;48.702;9.326;2022-09-03T02:28:13;1.90;;;0.70;;
7843;SDS011;3967;48.702;9.326;2022-09-03T02:30:53;2.70;;;0.97;;
7843;SDS011;3967;48.702;9.326;2022-09-03T02:33:20;0.70;;;0.67;;
7843;SDS011;3967;48.702;9.326;2022-09-03T02:35:47;2.63;;;1.23;;
7843;SDS011;3967;48.702;9.326;2022-09-03T02:38:21;1.13;;;0.70;;
7843;SDS011;3967;48.702;9.326;2022-09-03T02:40:53;2.50;;;1.30;;
7843;SDS011;3967;48.702;9.326;2022-09-03T02:45:51;1.40;;;0.90;;
7843;SDS011;3967;48.702;9.326;2022-09-03T02:48:22;1.30;;;0.80;;
7843;SDS011;3967;48.702;9.326;2022-09-03T02:50:50;2.50;;;1.00;;
7843;SDS011;3967;48.702;9.326;2022-09-03T02:53:17;0.97;;;0.93;;
7843;SDS011;3967;48.702;9.326;2022-09-03T02:55:44;0.97;;;0.80;;
7843;SDS011;3967;48.702;9.326;2022-09-03T02:58:11;1.20;;;1.00;;
7843;SDS011;3967;48.702;9.326;2022-09-03T03:00:38;1.23;;;0.77;;
7843;SDS011;3967;48.702;9.326;2022-09-03T03:03:05;1.10;;;0.87;;
7843;SDS011;3967;48.702;9.326;2022-09-03T03:05:41;0.73;;;0.73;;
7843;SDS011;3967;48.702;9.326;2022-09-03T03:08:14;1.70;;;0.90;;
7843;SDS011;3967;48.702;9.326;2022-09-03T03:10:42;3.70;;;1.00;;
7843;SDS011;3967;48.702;9.326;2022-09-03T03:13:11;2.07;;;1.20;;
7843;SDS011;3967;48.702;9.326;2022-09-03T03:15:39;1.00;;;0.90;;
7843;SDS011;3967;48.702;9.326;2022-09-03T03:18:06;1.87;;;0.90;;
7843;SDS011;3967;48.702;9.326;2022-09-03T03:20:33;0.80;;;0.70;;
7843;SDS011;3967;48.702;9.326;2022-09-03T03:23:03;2.20;;;1.00;;
7843;SDS011;3967;48.702;9.326;2022-09-03T03:25:31;1.90;;;0.80;;
7843;SDS011;3967;48.702;9.326;2022-09-03T03:28:02;1.80;;;1.23;;
7843;SDS011;3967;48.702;9.326;2022-09-03T03:30:30;2.23;;;1.40;;
7843;SDS011;3967;48.702;9.326;2022-09-03T03:32:58;1.30;;;1.20;;
7843;SDS011;3967;48.702;9.326;2022-09-03T03:35:25;1.03;;;0.93;;
7843;SDS011;3967;48.702;9.326;2022-09-03T03:37:51;0.90;;;0.90;;
7843;SDS011;3967;48.702;9.326;2022-09-03T03:40:18;1.80;;;0.90;;
7843;SDS011;3967;48.702;9.326;2022-09-03T03:42:45;1.17;;;0.90;;
7843;SDS011;3967;48.702;9.326;2022-09-03T03:45:12;2.00;;;0.97;;
7843;SDS011;3967;48.702;9.326;2022-09-03T03:47:38;2.27;;;1.03;;
7843;SDS011;3967;48.702;9.326;2022-09-03T03:50:05;1.60;;;1.17;;
7843;SDS011;3967;48.702;9.326;2022-09-03T03:52:32;2.83;;;0.80;;
7843;SDS011;3967;48.702;9.326;2022-09-03T03:54:59;3.00;;;1.00;;
7843;SDS011;3967;48.702;9.326;2022-09-03T03:57:28;2.10;;;1.00;;
7843;SDS011;3967;48.702;9.326;2022-09-03T03:59:55;1.23;;;0.90;;
7843;SDS011;3967;48.702;9.326;2022-09-03T04:02:22;2.43;;;1.10;;
7843;SDS011;3967;48.702;9.326;2022-09-03T04:04:49;1.17;;;1.07;;
7843;SDS011;3967;48.702;9.326;2022-09-03T04:07:16;1.53;;;0.90;;
7843;SDS011;3967;48.702;9.326;2022-09-03T04:09:43;1.40;;;1.07;;
7843;SDS011;3967;48.702;9.326;2022-09-03T04:12:10;2.00;;;1.13;;
7843;SDS011;3967;48.702;9.326;2022-09-03T04:14:36;2.00;;;1.00;;
7843;SDS011;3967;48.702;9.326;2022-09-03T04:17:03;1.27;;;0.97;;
7843;SDS011;3967;48.702;9.326;2022-09-03T04:19:30;2.70;;;1.20;;
7843;SDS011;3967;48.702;9.326;2022-09-03T04:21:57;5.00;;;1.37;;
7843;SDS011;3967;48.702;9.326;2022-09-03T04:24:24;2.00;;;1.30;;
7843;SDS011;3967;48.702;9.326;2022-09-03T04:26:51;4.33;;;1.33;;
7843;SDS011;3967;48.702;9.326;2022-09-03T04:29:19;1.50;;;1.00;;
7843;SDS011;3967;48.702;9.326;2022-09-03T04:31:47;1.33;;;1.10;;
7843;SDS011;3967;48.702;9.326;2022-09-03T04:34:32;1.53;;;1.10;;
7843;SDS011;3967;48.702;9.326;2022-09-03T04:36:59;1.07;;;0.90;;
7843;SDS011;3967;48.702;9.326;2022-09-03T04:39:25;1.00;;;0.90;;
7843;SDS011;3967;48.702;9.326;2022-09-03T04:41:52;1.23;;;0.90;;
7843;SDS011;3967;48.702;9.326;2022-09-03T04:44:19;2.03;;;0.83;;
7843;SDS011;3967;48.702;9.326;2022-09-03T04:46:46;0.80;;;0.80;;
7843;SDS011;3967;48.702;9.326;2022-09-03T04:49:13;0.93;;;0.83;;
7843;SDS011;3967;48.702;9.326;2022-09-03T04:51:40;1.30;;;1.00;;
7843;SDS011;3967;48.702;9.326;2022-09-03T04:54:07;1.23;;;1.13;;
7843;SDS011;3967;48.702;9.326;2022-09-03T04:56:35;2.13;;;1.00;;
7843;SDS011;3967;48.702;9.326;2022-09-03T04:59:05;0.90;;;0.90;;
7843;SDS011;3967;48.702;9.326;2022-09-03T05:01:34;4.03;;;1.13;;
7843;SDS011;3967;48.702;9.326;2022-09-03T05:04:02;1.37;;;1.10;;
7843;SDS011;3967;48.702;9.326;2022-09-03T05:06:30;2.00;;;0.97;;
7843;SDS011;3967;48.702;9.326;2022-09-03T05:08:58;1.03;;;0.90;;
7843;SDS011;3967;48.702;9.326;2022-09-03T05:11:25;1.53;;;1.10;;
7843;SDS011;3967;48.702;9.326;2022-09-03T05:13:54;1.47;;;1.10;;
7843;SDS011;3967;48.702;9.326;2022-09-03T05:16:23;2.23;;;1.00;;
7843;SDS011;3967;48.702;9.326;2022-09-03T05:18:52;1.10;;;1.00;;
7843;SDS011;3967;48.702;9.326;2022-09-03T05:21:22;1.40;;;1.00;;
7843;SDS011;3967;48.702;9.326;2022-09-03T05:23:49;1.97;;;1.03;;
7843;SDS011;3967;48.702;9.326;2022-09-03T05:26:22;1.50;;;1.00;;
7843;SDS011;3967;48.702;9.326;2022-09-03T05:28:52;1.20;;;1.10;;
7843;SDS011;3967;48.702;9.326;2022-09-03T05:31:21;1.97;;;1.00;;
7843;SDS011;3967;48.702;9.326;2022-09-03T05:33:52;2.30;;;1.20;;
7843;SDS011;3967;48.702;9.326;2022-09-03T05:36:23;1.77;;;0.90;;
7843;SDS011;3967;48.702;9.326;2022-09-03T05:38:51;1.13;;;1.10;;
7843;SDS011;3967;48.702;9.326;2022-09-03T05:41:23;1.33;;;0.97;;
7843;SDS011;3967;48.702;9.326;2022-09-03T05:43:51;2.83;;;1.27;;
7843;SDS011;3967;48.702;9.326;2022-09-03T05:46:25;1.40;;;1.30;;
7843;SDS011;3967;48.702;9.326;2022-09-03T05:49:01;1.30;;;1.20;;
7843;SDS011;3967;48.702;9.326;2022-09-03T05:51:30;1.87;;;1.17;;
7843;SDS011;3967;48.702;9.326;2022-09-03T05:53:57;2.53;;;1.30;;
7843;SDS011;3967;48.702;9.326;2022-09-03T05:56:25;1.60;;;1.23;;
7843;SDS011;3967;48.702;9.326;2022-09-03T05:58:54;1.43;;;1.10;;
7843;SDS011;3967;48.702;9.326;2022-09-03T06:06:23;1.30;;;1.20;;
7843;SDS011;3967;48.702;9.326;2022-09-03T06:08:57;3.53;;;1.23;;
7843;SDS011;3967;48.702;9.326;2022-09-03T06:11:28;2.33;;;1.23;;
7843;SDS011;3967;48.702;9.326;2022-09-03T06:13:56;2.43;;;1.10;;
7843;SDS011;3967;48.702;9.326;2022-09-03T06:16:26;1.20;;;1.10;;
7843;SDS011;3967;48.702;9.326;2022-09-03T06:18:57;1.10;;;1.00;;
7843;SDS011;3967;48.702;9.326;2022-09-03T06:21:27;1.90;;;1.40;;
7843;SDS011;3967;48.702;9.326;2022-09-03T06:23:55;1.00;;;1.00;;
7843;SDS011;3967;48.702;9.326;2022-09-03T06:26:25;1.33;;;1.20;;
7843;SDS011;3967;48.702;9.326;2022-09-03T06:28:54;1.30;;;1.20;;
7843;SDS011;3967;48.702;9.326;2022-09-03T06:31:22;2.47;;;1.10;;
7843;SDS011;3967;48.702;9.326;2022-09-03T06:33:49;2.07;;;1.10;;
7843;SDS011;3967;48.702;9.326;2022-09-03T06:36:17;2.97;;;1.10;;
7843;SDS011;3967;48.702;9.326;2022-09-03T06:38:45;3.97;;;1.43;;
7843;SDS011;3967;48.702;9.326;2022-09-03T06:41:13;2.03;;;1.43;;
7843;SDS011;3967;48.702;9.326;2022-09-03T06:43:56;1.60;;;1.20;;
7843;SDS011;3967;48.702;9.326;2022-09-03T06:46:30;3.27;;;1.23;;
7843;SDS011;3967;48.702;9.326;2022-09-03T06:48:59;3.70;;;1.10;;
7843;SDS011;3967;48.702;9.326;2022-09-03T06:51:27;2.27;;;1.13;;
7843;SDS011;3967;48.702;9.326;2022-09-03T06:53:59;5.93;;;1.57;;
7843;SDS011;3967;48.702;9.326;2022-09-03T06:56:28;2.70;;;1.47;;
7843;SDS011;3967;48.702;9.326;2022-09-03T06:59:02;2.40;;;1.40;;
7843;SDS011;3967;48.702;9.326;2022-09-03T07:01:30;2.07;;;1.40;;
7843;SDS011;3967;48.702;9.326;2022-09-03T07:04:02;2.60;;;1.47;;
7843;SDS011;3967;48.702;9.326;2022-09-03T07:06:31;1.80;;;1.30;;
7843;SDS011;3967;48.702;9.326;2022-09-03T07:09:02;2.80;;;1.30;;
7843;SDS011;3967;48.702;9.326;2022-09-03T07:11:29;1.53;;;1.40;;
7843;SDS011;3967;48.702;9.326;2022-09-03T07:13:58;1.53;;;1.40;;
7843;SDS011;3967;48.702;9.326;2022-09-03T07:16:29;1.53;;;1.40;;
7843;SDS011;3967;48.702;9.326;2022-09-03T07:19:01;1.27;;;1.17;;
7843;SDS011;3967;48.702;9.326;2022-09-03T07:21:30;1.10;;;1.07;;
7843;SDS011;3967;48.702;9.326;2022-09-03T07:24:13;3.23;;;2.87;;
7843;SDS011;3967;48.702;9.326;2022-09-03T07:26:40;3.17;;;1.50;;
7843;SDS011;3967;48.702;9.326;2022-09-03T07:29:12;2.60;;;1.30;;
7843;SDS011;3967;48.702;9.326;2022-09-03T07:31:41;1.30;;;1.10;;
7843;SDS011;3967;48.702;9.326;2022-09-03T07:34:09;2.40;;;1.00;;
7843;SDS011;3967;48.702;9.326;2022-09-03T07:36:38;3.47;;;1.63;;
7843;SDS011;3967;48.702;9.326;2022-09-03T07:39:08;2.10;;;1.53;;
7843;SDS011;3967;48.702;9.326;2022-09-03T07:41:42;1.50;;;1.40;;
7843;SDS011;3967;48.702;9.326;2022-09-03T07:44:11;3.13;;;1.40;;
7843;SDS011;3967;48.702;9.326;2022-09-03T07:46:40;1.93;;;1.40;;
7843;SDS011;3967;48.702;9.326;2022-09-03T07:49:08;2.27;;;1.70;;
7843;SDS011;3967;48.702;9.326;2022-09-03T07:51:36;1.53;;;1.43;;
7843;SDS011;3967;48.702;9.326;2022-09-03T07:54:05;1.50;;;1.40;;
7843;SDS011;3967;48.702;9.326;2022-09-03T07:56:35;1.70;;;1.60;;
7843;SDS011;3967;48.702;9.326;2022-09-03T07:59:03;1.40;;;1.30;;
7843;SDS011;3967;48.702;9.326;2022-09-03T08:01:31;1.77;;;1.47;;
7843;SDS011;3967;48.702;9.326;2022-09-03T08:03:59;1.63;;;1.53;;
7843;SDS011;3967;48.702;9.326;2022-09-03T08:06:27;6.40;;;1.97;;
7843;SDS011;3967;48.702;9.326;2022-09-03T08:08:59;2.27;;;1.53;;
7843;SDS011;3967;48.702;9.326;2022-09-03T08:11:31;2.83;;;1.33;;
7843;SDS011;3967;48.702;9.326;2022-09-03T08:14:01;2.10;;;1.53;;
7843;SDS011;3967;48.702;9.326;2022-09-03T08:16:36;1.97;;;1.43;;
7843;SDS011;3967;48.702;9.326;2022-09-03T08:19:05;1.70;;;1.60;;
7843;SDS011;3967;48.702;9.326;2022-09-03T08:21:32;2.17;;;1.67;;
7843;SDS011;3967;48.702;9.326;2022-09-03T08:23:59;2.00;;;1.80;;
7843;SDS011;3967;48.702;9.326;2022-09-03T08:26:30;1.50;;;1.40;;
7843;SDS011;3967;48.702;9.326;2022-09-03T08:28:58;2.43;;;1.53;;
7843;SDS011;3967;48.702;9.326;2022-09-03T08:31:25;1.57;;;1.47;;
7843;SDS011;3967;48.702;9.326;2022-09-03T08:33:54;1.67;;;1.57;;
7843;SDS011;3967;48.702;9.326;2022-09-03T08:36:23;2.33;;;1.60;;
7843;SDS011;3967;48.702;9.326;2022-09-03T08:38:55;2.80;;;1.60;;
7843;SDS011;3967;48.702;9.326;2022-09-03T08:49:12;2.07;;;1.37;;
7843;SDS011;3967;48.702;9.326;2022-09-03T08:51:43;1.87;;;1.70;;
7843;SDS011;3967;48.702;9.326;2022-09-03T08:54:13;2.03;;;1.80;;
7843;SDS011;3967;48.702;9.326;2022-09-03T08:56:41;2.47;;;1.50;;
7843;SDS011;3967;48.702;9.326;2022-09-03T08:59:08;2.00;;;1.80;;
7843;SDS011;3967;48.702;9.326;2022-09-03T09:04:40;2.33;;;1.60;;
7843;SDS011;3967;48.702;9.326;2022-09-03T09:10:18;1.70;;;1.60;;
7843;SDS011;3967;48.702;9.326;2022-09-03T09:13:08;2.73;;;1.70;;
7843;SDS011;3967;48.702;9.326;2022-09-03T09:21:26;4.50;;;1.93;;
7843;SDS011;3967;48.702;9.326;2022-09-03T09:23:56;2.30;;;2.10;;
7843;SDS011;3967;48.702;9.326;2022-09-03T09:26:28;2.50;;;1.73;;
7843;SDS011;3967;48.702;9.326;2022-09-03T09:29:01;2.10;;;1.90;;
7843;SDS011;3967;48.702;9.326;2022-09-03T09:31:36;2.67;;;2.47;;
7843;SDS011;3967;48.702;9.326;2022-09-03T09:34:05;10.37;;;9.17;;
7843;SDS011;3967;48.702;9.326;2022-09-03T09:36:40;4.50;;;3.93;;
7843;SDS011;3967;48.702;9.326;2022-09-03T09:39:12;2.90;;;2.70;;
7843;SDS011;3967;48.702;9.326;2022-09-03T09:41:41;2.60;;;2.40;;
7843;SDS011;3967;48.702;9.326;2022-09-03T09:44:17;3.97;;;2.10;;
7843;SDS011;3967;48.702;9.326;2022-09-03T09:46:45;2.33;;;1.60;;
7843;SDS011;3967;48.702;9.326;2022-09-03T09:52:02;1.90;;;1.80;;
7843;SDS011;3967;48.702;9.326;2022-09-03T09:54:33;1.87;;;1.77;;
7843;SDS011;3967;48.702;9.326;2022-09-03T09:57:01;2.77;;;1.70;;
7843;SDS011;3967;48.702;9.326;2022-09-03T09:59:45;3.10;;;1.70;;
7843;SDS011;3967;48.702;9.326;2022-09-03T10:02:13;3.13;;;1.80;;
7843;SDS011;3967;48.702;9.326;2022-09-03T10:04:47;3.27;;;1.70;;
7843;SDS011;3967;48.702;9.326;2022-09-03T10:09:59;1.77;;;1.67;;
7843;SDS011;3967;48.702;9.326;2022-09-03T10:12:52;1.77;;;1.67;;
7843;SDS011;3967;48.702;9.326;2022-09-03T10:15:26;1.53;;;1.43;;
7843;SDS011;3967;48.702;9.326;2022-09-03T10:18:06;1.83;;;1.63;;
7843;SDS011;3967;48.702;9.326;2022-09-03T10:23:26;2.17;;;1.30;;
7843;SDS011;3967;48.702;9.326;2022-09-03T10:28:33;6.03;;;1.80;;
7843;SDS011;3967;48.702;9.326;2022-09-03T10:48:23;2.07;;;1.87;;
7843;SDS011;3967;48.702;9.326;2022-09-03T11:05:17;2.27;;;1.63;;
7843;SDS011;3967;48.702;9.326;2022-09-03T11:08:06;1.93;;;1.83;;
7843;SDS011;3967;48.702;9.326;2022-09-03T11:10:53;2.97;;;2.00;;
7843;SDS011;3967;48.702;9.326;2022-09-03T11:13:26;2.17;;;2.07;;
7843;SDS011;3967;48.702;9.326;2022-09-03T11:16:02;1.93;;;1.83;;
7843;SDS011;3967;48.702;9.326;2022-09-03T11:21:14;2.97;;;1.77;;
7843;SDS011;3967;48.702;9.326;2022-09-03T11:23:45;2.87;;;1.77;;
7843;SDS011;3967;48.702;9.326;2022-09-03T11:26:21;2.53;;;2.33;;
7843;SDS011;3967;48.702;9.326;2022-09-03T11:29:03;2.07;;;1.97;;
7843;SDS011;3967;48.702;9.326;2022-09-03T11:34:13;1.90;;;1.80;;
7843;SDS011;3967;48.702;9.326;2022-09-03T11:37:05;2.93;;;1.83;;
7843;SDS011;3967;48.702;9.326;2022-09-03T11:39:56;2.33;;;1.90;;
7843;SDS011;3967;48.702;9.326;2022-09-03T11:42:27;1.40;;;1.30;;
7843;SDS011;3967;48.702;9.326;2022-09-03T11:45:10;1.80;;;1.70;;
7843;SDS011;3967;48.702;9.326;2022-09-03T11:47:46;2.63;;;2.00;;
7843;SDS011;3967;48.702;9.326;2022-09-03T11:50:22;2.07;;;1.97;;
7843;SDS011;3967;48.702;9.326;2022-09-03T11:52:51;1.77;;;1.67;;
7843;SDS011;3967;48.702;9.326;2022-09-03T11:55:26;1.73;;;1.63;;
7843;SDS011;3967;48.702;9.326;2022-09-03T11:58:16;2.00;;;1.90;;
7843;SDS011;3967;48.702;9.326;2022-09-03T12:00:49;2.30;;;1.70;;
7843;SDS011;3967;48.702;9.326;2022-09-03T12:03:22;1.67;;;1.57;;
7843;SDS011;3967;48.702;9.326;2022-09-03T12:06:04;1.60;;;1.50;;
7843;SDS011;3967;48.702;9.326;2022-09-03T12:11:40;4.63;;;2.30;;
7843;SDS011;3967;48.702;9.326;2022-09-03T12:21:51;5.20;;;3.13;;
7843;SDS011;3967;48.702;9.326;2022-09-03T12:24:18;4.43;;;1.60;;
7843;SDS011;3967;48.702;9.326;2022-09-03T12:26:45;1.63;;;0.90;;
7843;SDS011;3967;48.702;9.326;2022-09-03T12:29:22;1.83;;;0.80;;
7843;SDS011;3967;48.702;9.326;2022-09-03T12:31:53;2.10;;;0.70;;
7843;SDS011;3967;48.702;9.326;2022-09-03T12:34:22;3.20;;;1.00;;
7843;SDS011;3967;48.702;9.326;2022-09-03T12:36:51;1.20;;;0.90;;
7843;SDS011;3967;48.702;9.326;2022-09-03T12:39:23;1.93;;;0.80;;
7843;SDS011;3967;48.702;9.326;2022-09-03T12:42:12;4.07;;;1.20;;
7843;SDS011;3967;48.702;9.326;2022-09-03T12:44:50;2.33;;;0.90;;
7843;SDS011;3967;48.702;9.326;2022-09-03T12:47:17;0.90;;;0.90;;
7843;SDS011;3967;48.702;9.326;2022-09-03T12:50:05;1.10;;;0.90;;
7843;SDS011;3967;48.702;9.326;2022-09-03T12:52:38;3.53;;;1.00;;
7843;SDS011;3967;48.702;9.326;2022-09-03T12:57:59;1.43;;;0.80;;
7843;SDS011;3967;48.702;9.326;2022-09-03T13:00:36;2.37;;;0.73;;
7843;SDS011;3967;48.702;9.326;2022-09-03T13:05:45;2.17;;;1.07;;
7843;SDS011;3967;48.702;9.326;2022-09-03T13:08:24;5.63;;;1.20;;
7843;SDS011;3967;48.702;9.326;2022-09-03T13:10:55;2.70;;;0.73;;
7843;SDS011;3967;48.702;9.326;2022-09-03T13:13:25;4.27;;;1.00;;
7843;SDS011;3967;48.702;9.326;2022-09-03T13:16:01;1.37;;;0.80;;
7843;SDS011;3967;48.702;9.326;2022-09-03T13:26:28;2.83;;;0.90;;
7843;SDS011;3967;48.702;9.326;2022-09-03T13:32:00;2.70;;;1.03;;
7843;SDS011;3967;48.702;9.326;2022-09-03T13:40:01;3.53;;;0.97;;
7843;SDS011;3967;48.702;9.326;2022-09-03T13:42:42;3.60;;;0.90;;
7843;SDS011;3967;48.702;9.326;2022-09-03T13:45:34;2.03;;;0.83;;
7843;SDS011;3967;48.702;9.326;2022-09-03T13:48:28;2.27;;;1.00;;
7843;SDS011;3967;48.702;9.326;2022-09-03T13:51:30;3.80;;;0.70;;
7843;SDS011;3967;48.702;9.326;2022-09-03T13:54:11;2.33;;;0.90;;
7843;SDS011;3967;48.702;9.326;2022-09-03T13:59:57;1.67;;;0.73;;
7843;SDS011;3967;48.702;9.326;2022-09-03T14:10:43;1.13;;;0.97;;
7843;SDS011;3967;48.702;9.326;2022-09-03T14:13:41;1.10;;;0.60;;
7843;SDS011;3967;48.702;9.326;2022-09-03T14:27:27;1.80;;;0.60;;
7843;SDS011;3967;48.702;9.326;2022-09-03T14:30:06;0.70;;;0.50;;
7843;SDS011;3967;48.702;9.326;2022-09-03T14:54:42;1.47;;;0.70;;
7843;SDS011;3967;48.702;9.326;2022-09-03T15:05:45;2.10;;;0.70;;
7843;SDS011;3967;48.702;9.326;2022-09-03T15:08:30;0.70;;;0.70;;
7843;SDS011;3967;48.702;9.326;2022-09-03T15:11:02;1.50;;;0.60;;
7843;SDS011;3967;48.702;9.326;2022-09-03T15:13:44;0.83;;;0.47;;
7843;SDS011;3967;48.702;9.326;2022-09-03T15:19:11;2.37;;;0.40;;
7843;SDS011;3967;48.702;9.326;2022-09-03T15:30:12;0.50;;;0.50;;
7843;SDS011;3967;48.702;9.326;2022-09-03T15:32:58;0.90;;;0.60;;
7843;SDS011;3967;48.702;9.326;2022-09-03T15:36:17;0.60;;;0.53;;
7843;SDS011;3967;48.702;9.326;2022-09-03T15:40:59;0.50;;;0.50;;
7843;SDS011;3967;48.702;9.326;2022-09-03T15:43:30;0.57;;;0.57;;
7843;SDS011;3967;48.702;9.326;2022-09-03T15:45:59;0.73;;;0.70;;
7843;SDS011;3967;48.702;9.326;2022-09-03T15:48:46;1.40;;;0.60;;
7843;SDS011;3967;48.702;9.326;2022-09-03T16:00:01;0.40;;;0.40;;
7843;SDS011;3967;48.702;9.326;2022-09-03T16:02:33;0.63;;;0.63;;
7843;SDS011;3967;48.702;9.326;2022-09-03T16:05:34;1.90;;;1.00;;
7843;SDS011;3967;48.702;9.326;2022-09-03T16:08:25;1.50;;;0.63;;
7843;SDS011;3967;48.702;9.326;2022-09-03T16:19:36;0.97;;;0.53;;
7843;SDS011;3967;48.702;9.326;2022-09-03T16:22:28;0.80;;;0.70;;
7843;SDS011;3967;48.702;9.326;2022-09-03T16:27:41;0.87;;;0.60;;
7843;SDS011;3967;48.702;9.326;2022-09-03T16:30:27;0.43;;;0.43;;
7843;SDS011;3967;48.702;9.326;2022-09-03T16:47:03;0.67;;;0.67;;
7843;SDS011;3967;48.702;9.326;2022-09-03T17:06:35;1.83;;;0.80;;
7843;SDS011;3967;48.702;9.326;2022-09-03T17:09:37;0.60;;;0.60;;
7843;SDS011;3967;48.702;9.326;2022-09-03T17:12:17;1.37;;;0.80;;
7843;SDS011;3967;48.702;9.326;2022-09-03T17:18:32;0.70;;;0.70;;
7843;SDS011;3967;48.702;9.326;2022-09-03T17:34:30;2.20;;;1.03;;
7843;SDS011;3967;48.702;9.326;2022-09-03T17:37:24;0.83;;;0.70;;
7843;SDS011;3967;48.702;9.326;2022-09-03T17:48:38;0.67;;;0.60;;
7843;SDS011;3967;48.702;9.326;2022-09-03T17:54:08;0.70;;;0.70;;
7843;SDS011;3967;48.702;9.326;2022-09-03T18:00:23;1.37;;;0.80;;
7843;SDS011;3967;48.702;9.326;2022-09-03T18:05:27;1.57;;;0.70;;
7843;SDS011;3967;48.702;9.326;2022-09-03T18:16:00;0.83;;;0.60;;
7843;SDS011;3967;48.702;9.326;2022-09-03T18:18:46;1.70;;;0.80;;
7843;SDS011;3967;48.702;9.326;2022-09-03T18:21:20;1.10;;;1.10;;
7843;SDS011;3967;48.702;9.326;2022-09-03T18:30:08;2.83;;;1.17;;
7843;SDS011;3967;48.702;9.326;2022-09-03T18:32:55;1.70;;;0.90;;
7843;SDS011;3967;48.702;9.326;2022-09-03T18:35:44;1.73;;;0.90;;
7843;SDS011;3967;48.702;9.326;2022-09-03T18:38:32;0.83;;;0.83;;
7843;SDS011;3967;48.702;9.326;2022-09-03T18:44:47;1.03;;;0.70;;
7843;SDS011;3967;48.702;9.326;2022-09-03T18:57:35;1.80;;;1.50;;
7843;SDS011;3967;48.702;9.326;2022-09-03T19:00:46;1.23;;;0.90;;
7843;SDS011;3967;48.702;9.326;2022-09-03T19:07:01;1.87;;;1.00;;
7843;SDS011;3967;48.702;9.326;2022-09-03T19:10:09;1.87;;;1.27;;
7843;SDS011;3967;48.702;9.326;2022-09-03T19:16:13;0.93;;;0.93;;
7843;SDS011;3967;48.702;9.326;2022-09-03T19:22:11;2.17;;;1.20;;
7843;SDS011;3967;48.702;9.326;2022-09-03T19:25:18;0.83;;;0.83;;
7843;SDS011;3967;48.702;9.326;2022-09-03T19:28:20;1.00;;;1.00;;
7843;SDS011;3967;48.702;9.326;2022-09-03T19:37:36;1.73;;;1.20;;
7843;SDS011;3967;48.702;9.326;2022-09-03T19:44:04;1.63;;;1.30;;
7843;SDS011;3967;48.702;9.326;2022-09-03T19:46:58;2.17;;;1.40;;
7843;SDS011;3967;48.702;9.326;2022-09-03T19:53:06;0.80;;;0.80;;
7843;SDS011;3967;48.702;9.326;2022-09-03T19:55:58;1.17;;;0.97;;
7843;SDS011;3967;48.702;9.326;2022-09-03T19:58:48;1.03;;;1.00;;
7843;SDS011;3967;48.702;9.326;2022-09-03T20:01:39;1.87;;;1.47;;
7843;SDS011;3967;48.702;9.326;2022-09-03T20:04:47;1.70;;;1.37;;
7843;SDS011;3967;48.702;9.326;2022-09-03T20:07:42;1.20;;;1.10;;
7843;SDS011;3967;48.702;9.326;2022-09-03T20:10:29;1.30;;;1.20;;
7843;SDS011;3967;48.702;9.326;2022-09-03T20:13:10;1.13;;;1.03;;
7843;SDS011;3967;48.702;9.326;2022-09-03T20:23:54;1.97;;;1.50;;
7843;SDS011;3967;48.702;9.326;2022-09-03T20:32:26;2.10;;;1.90;;
7843;SDS011;3967;48.702;9.326;2022-09-03T20:38:46;1.83;;;1.70;;
7843;SDS011;3967;48.702;9.326;2022-09-03T21:00:57;2.40;;;2.13;;
7843;SDS011;3967;48.702;9.326;2022-09-03T21:17:13;2.10;;;2.00;;
7843;SDS011;3967;48.702;9.326;2022-09-03T21:25:51;1.87;;;1.77;;
7843;SDS011;3967;48.702;9.326;2022-09-03T21:28:27;4.30;;;1.63;;
7843;SDS011;3967;48.702;9.326;2022-09-03T21:33:39;2.33;;;1.93;;
7843;SDS011;3967;48.702;9.326;2022-09-03T21:38:44;2.33;;;1.60;;
7843;SDS011;3967;48.702;9.326;2022-09-03T21:41:33;3.00;;;2.07;;
7843;SDS011;3967;48.702;9.326;2022-09-03T21:44:29;1.97;;;1.87;;
7843;SDS011;3967;48.702;9.326;2022-09-03T21:47:10;2.90;;;2.60;;
7843;SDS011;3967;48.702;9.326;2022-09-03T21:53:01;3.13;;;2.57;;
7843;SDS011;3967;48.702;9.326;2022-09-03T21:55:43;3.63;;;3.00;;
7843;SDS011;3967;48.702;9.326;2022-09-03T22:01:25;2.20;;;2.10;;
7843;SDS011;3967;48.702;9.326;2022-09-03T22:04:15;2.47;;;1.90;;
7843;SDS011;3967;48.702;9.326;2022-09-03T22:09:55;2.60;;;1.93;;
7843;SDS011;3967;48.702;9.326;2022-09-03T22:15:06;4.17;;;2.20;;
7843;SDS011;3967;48.702;9.326;2022-09-03T22:17:39;3.73;;;2.10;;
7843;SDS011;3967;48.702;9.326;2022-09-03T22:20:21;4.07;;;2.80;;
7843;SDS011;3967;48.702;9.326;2022-09-03T22:22:53;3.90;;;2.90;;
7843;SDS011;3967;48.702;9.326;2022-09-03T22:28:22;4.00;;;3.10;;
7843;SDS011;3967;48.702;9.326;2022-09-03T22:31:03;2.93;;;2.70;;
7843;SDS011;3967;48.702;9.326;2022-09-03T22:33:51;3.13;;;2.70;;
7843;SDS011;3967;48.702;9.326;2022-09-03T22:36:49;4.27;;;3.00;;
7843;SDS011;3967;48.702;9.326;2022-09-03T22:39:31;7.13;;;3.67;;
7843;SDS011;3967;48.702;9.326;2022-09-03T22:47:07;3.20;;;2.90;;
7843;SDS011;3967;48.702;9.326;2022-09-03T22:49:57;4.63;;;3.57;;
7843;SDS011;3967;48.702;9.326;2022-09-03T22:52:43;5.27;;;3.47;;
7843;SDS011;3967;48.702;9.326;2022-09-03T23:00:37;2.90;;;2.70;;
7843;SDS011;3967;48.702;9.326;2022-09-03T23:03:08;2.37;;;2.17;;
7843;SDS011;3967;48.702;9.326;2022-09-03T23:05:47;2.23;;;2.03;;
7843;SDS011;3967;48.702;9.326;2022-09-03T23:08:21;2.23;;;2.00;;
7843;SDS011;3967;48.702;9.326;2022-09-03T23:11:08;3.00;;;2.70;;
7843;SDS011;3967;48.702;9.326;2022-09-03T23:13:49;2.30;;;2.20;;
7843;SDS011;3967;48.702;9.326;2022-09-03T23:19:08;2.67;;;2.23;;
7843;SDS011;3967;48.702;9.326;2022-09-03T23:21:52;2.23;;;2.03;;
7843;SDS011;3967;48.702;9.326;2022-09-03T23:27:12;2.47;;;2.03;;
7843;SDS011;3967;48.702;9.326;2022-09-03T23:29:53;2.77;;;2.57;;
7843;SDS011;3967;48.702;9.326;2022-09-03T23:32:22;2.00;;;1.90;;
7843;SDS011;3967;48.702;9.326;2022-09-03T23:34:53;3.27;;;2.30;;
7843;SDS011;3967;48.702;9.326;2022-09-03T23:40:39;3.37;;;2.40;;
7843;SDS011;3967;48.702;9.326;2022-09-03T23:46:41;2.30;;;2.20;;
7843;SDS011;3967;48.702;9.326;2022-09-03T23:54:24;2.87;;;2.40;;
